sensor_id;sensor_type;location;lat;lon;timestamp;pressure;altitude;pressure_sealevel;temperature;humidity
22283;BME280;11310;51.528;21.204;2022-07-06T00:00:53;100046.03;;;17.65;100.00
22283;BME280;11310;51.528;21.204;2022-07-06T00:03:22;100046.88;;;17.65;100.00
22283;BME280;11310;51.528;21.204;2022-07-06T00:05:51;100043.50;;;17.63;100.00
22283;BME280;11310;51.528;21.204;2022-07-06T00:08:20;100041.78;;;17.62;100.00
22283;BME280;11310;51.528;21.204;2022-07-06T00:10:51;100041.78;;;17.62;100.00
22283;BME280;11310;51.528;21.204;2022-07-06T00:13:20;100041.56;;;17.65;100.00
22283;BME280;11310;51.528;21.204;2022-07-06T00:15:49;100042.53;;;17.64;100.00
22283;BME280;11310;51.528;21.204;2022-07-06T00:18:20;100047.09;;;17.62;100.00
22283;BME280;11310;51.528;21.204;2022-07-06T00:20:49;100038.75;;;17.56;100.00
22283;BME280;11310;51.528;21.204;2022-07-06T00:23:18;100052.00;;;17.56;100.00
22283;BME280;11310;51.528;21.204;2022-07-06T00:25:47;100044.91;;;17.56;100.00
22283;BME280;11310;51.528;21.204;2022-07-06T00:28:18;100036.22;;;17.54;100.00
22283;BME280;11310;51.528;21.204;2022-07-06T00:30:47;100042.47;;;17.53;100.00
22283;BME280;11310;51.528;21.204;2022-07-06T00:33:17;100036.44;;;17.51;100.00
22283;BME280;11310;51.528;21.204;2022-07-06T00:35:48;100032.09;;;17.50;100.00
22283;BME280;11310;51.528;21.204;2022-07-06T00:38:17;100037.41;;;17.50;100.00
22283;BME280;11310;51.528;21.204;2022-07-06T00:40:46;100035.59;;;17.51;100.00
22283;BME280;11310;51.528;21.204;2022-07-06T00:43:17;100032.22;;;17.49;100.00
22283;BME280;11310;51.528;21.204;2022-07-06T00:45:47;100029.56;;;17.49;100.00
22283;BME280;11310;51.528;21.204;2022-07-06T00:48:16;100028.00;;;17.46;100.00
22283;BME280;11310;51.528;21.204;2022-07-06T00:50:46;100030.03;;;17.43;100.00
22283;BME280;11310;51.528;21.204;2022-07-06T00:53:15;100030.03;;;17.43;100.00
22283;BME280;11310;51.528;21.204;2022-07-06T00:55:44;100030.84;;;17.43;100.00
22283;BME280;11310;51.528;21.204;2022-07-06T00:58:13;100026.41;;;17.44;100.00
22283;BME280;11310;51.528;21.204;2022-07-06T01:00:43;100024.84;;;17.41;100.00
22283;BME280;11310;51.528;21.204;2022-07-06T01:03:13;100029.38;;;17.39;100.00
22283;BME280;11310;51.528;21.204;2022-07-06T01:05:43;100024.94;;;17.40;100.00
22283;BME280;11310;51.528;21.204;2022-07-06T01:08:13;100018.13;;;17.36;100.00
22283;BME280;11310;51.528;21.204;2022-07-06T01:10:44;100030.66;;;17.34;100.00
22283;BME280;11310;51.528;21.204;2022-07-06T01:13:13;100023.66;;;17.33;100.00
22283;BME280;11310;51.528;21.204;2022-07-06T01:15:42;100024.50;;;17.33;100.00
22283;BME280;11310;51.528;21.204;2022-07-06T01:18:13;100021.13;;;17.31;100.00
22283;BME280;11310;51.528;21.204;2022-07-06T01:20:44;100017.53;;;17.32;100.00
22283;BME280;11310;51.528;21.204;2022-07-06T01:23:14;100015.69;;;17.33;100.00
22283;BME280;11310;51.528;21.204;2022-07-06T01:25:44;100022.06;;;17.30;100.00
22283;BME280;11310;51.528;21.204;2022-07-06T01:28:13;100023.78;;;17.31;100.00
22283;BME280;11310;51.528;21.204;2022-07-06T01:30:42;100017.63;;;17.31;100.00
22283;BME280;11310;51.528;21.204;2022-07-06T01:33:12;100018.47;;;17.31;100.00
22283;BME280;11310;51.528;21.204;2022-07-06T01:35:41;100021.13;;;17.31;100.00
22283;BME280;11310;51.528;21.204;2022-07-06T01:38:11;100021.97;;;17.32;100.00
22283;BME280;11310;51.528;21.204;2022-07-06T01:40:41;100024.63;;;17.32;100.00
22283;BME280;11310;51.528;21.204;2022-07-06T01:43:10;100021.97;;;17.32;100.00
22283;BME280;11310;51.528;21.204;2022-07-06T01:45:39;100022.06;;;17.30;100.00
22283;BME280;11310;51.528;21.204;2022-07-06T01:48:08;100017.13;;;17.26;100.00
22283;BME280;11310;51.528;21.204;2022-07-06T01:50:38;100017.22;;;17.24;100.00
22283;BME280;11310;51.528;21.204;2022-07-06T01:53:07;100023.03;;;17.29;100.00
22283;BME280;11310;51.528;21.204;2022-07-06T01:55:39;100014.13;;;17.30;100.00
22283;BME280;11310;51.528;21.204;2022-07-06T01:58:10;100015.44;;;17.25;100.00
22283;BME280;11310;51.528;21.204;2022-07-06T02:00:39;100011.81;;;17.26;100.00
22283;BME280;11310;51.528;21.204;2022-07-06T02:03:08;100012.66;;;17.26;100.00
22283;BME280;11310;51.528;21.204;2022-07-06T02:05:38;100012.66;;;17.26;100.00
22283;BME280;11310;51.528;21.204;2022-07-06T02:08:07;100018.81;;;17.27;100.00
22283;BME280;11310;51.528;21.204;2022-07-06T02:10:37;100014.38;;;17.27;100.00
22283;BME280;11310;51.528;21.204;2022-07-06T02:13:07;100016.03;;;17.28;100.00
22283;BME280;11310;51.528;21.204;2022-07-06T02:15:36;100016.03;;;17.28;100.00
22283;BME280;11310;51.528;21.204;2022-07-06T02:18:06;100017.84;;;17.28;100.00
22283;BME280;11310;51.528;21.204;2022-07-06T02:20:35;100017.13;;;17.26;100.00
22283;BME280;11310;51.528;21.204;2022-07-06T02:23:06;100010.97;;;17.25;100.00
22283;BME280;11310;51.528;21.204;2022-07-06T02:25:35;100009.28;;;17.24;100.00
22283;BME280;11310;51.528;21.204;2022-07-06T02:28:28;100009.50;;;17.21;100.00
22283;BME280;11310;51.528;21.204;2022-07-06T02:31:02;100009.50;;;17.21;100.00
22283;BME280;11310;51.528;21.204;2022-07-06T02:33:32;100010.44;;;17.20;100.00
22283;BME280;11310;51.528;21.204;2022-07-06T02:36:01;100009.50;;;17.21;100.00
22283;BME280;11310;51.528;21.204;2022-07-06T02:38:32;100007.81;;;17.20;100.00
22283;BME280;11310;51.528;21.204;2022-07-06T02:41:02;100002.00;;;17.15;100.00
22283;BME280;11310;51.528;21.204;2022-07-06T02:43:34;100002.84;;;17.16;100.00
22283;BME280;11310;51.528;21.204;2022-07-06T02:46:06;100014.28;;;17.16;100.00
22283;BME280;11310;51.528;21.204;2022-07-06T02:48:41;100009.94;;;17.15;100.00
22283;BME280;11310;51.528;21.204;2022-07-06T02:51:20;100007.41;;;17.14;100.00
22283;BME280;11310;51.528;21.204;2022-07-06T02:53:51;100009.34;;;17.12;100.00
22283;BME280;11310;51.528;21.204;2022-07-06T02:56:20;100014.84;;;17.09;100.00
22283;BME280;11310;51.528;21.204;2022-07-06T02:58:51;100008.72;;;17.08;100.00
22283;BME280;11310;51.528;21.204;2022-07-06T03:01:20;100015.19;;;17.04;100.00
22283;BME280;11310;51.528;21.204;2022-07-06T03:03:49;100012.75;;;17.01;100.00
22283;BME280;11310;51.528;21.204;2022-07-06T03:06:18;100012.75;;;17.01;100.00
22283;BME280;11310;51.528;21.204;2022-07-06T03:08:48;100018.06;;;17.01;100.00
22283;BME280;11310;51.528;21.204;2022-07-06T03:11:18;100020.72;;;17.01;100.00
22283;BME280;11310;51.528;21.204;2022-07-06T03:13:47;100020.72;;;17.01;100.00
22283;BME280;11310;51.528;21.204;2022-07-06T03:16:18;100018.06;;;17.01;100.00
22283;BME280;11310;51.528;21.204;2022-07-06T03:18:48;100016.56;;;16.97;100.00
22283;BME280;11310;51.528;21.204;2022-07-06T03:21:18;100016.56;;;16.97;100.00
22283;BME280;11310;51.528;21.204;2022-07-06T03:23:47;100014.91;;;16.96;100.00
22283;BME280;11310;51.528;21.204;2022-07-06T03:26:17;100012.25;;;16.96;100.00
22283;BME280;11310;51.528;21.204;2022-07-06T03:28:46;100003.31;;;16.97;100.00
22283;BME280;11310;51.528;21.204;2022-07-06T03:31:17;100014.91;;;16.96;100.00
22283;BME280;11310;51.528;21.204;2022-07-06T03:33:47;100017.75;;;16.93;100.00
22283;BME280;11310;51.528;21.204;2022-07-06T03:36:17;100008.97;;;16.93;100.00
22283;BME280;11310;51.528;21.204;2022-07-06T03:38:47;100011.50;;;16.94;100.00
22283;BME280;11310;51.528;21.204;2022-07-06T03:41:17;100000.38;;;16.89;100.00
22283;BME280;11310;51.528;21.204;2022-07-06T03:43:47;100020.84;;;16.87;100.00
22283;BME280;11310;51.528;21.204;2022-07-06T03:46:19;100014.81;;;16.85;100.00
22283;BME280;11310;51.528;21.204;2022-07-06T03:48:47;100010.47;;;16.84;100.00
22283;BME280;11310;51.528;21.204;2022-07-06T03:51:17;100009.84;;;16.81;100.00
22283;BME280;11310;51.528;21.204;2022-07-06T03:53:46;100007.19;;;16.81;100.00
22283;BME280;11310;51.528;21.204;2022-07-06T03:56:17;100000.09;;;16.81;100.00
22283;BME280;11310;51.528;21.204;2022-07-06T03:59:08;100005.41;;;16.81;100.00
22283;BME280;11310;51.528;21.204;2022-07-06T04:01:40;99992.88;;;16.83;100.00
22283;BME280;11310;51.528;21.204;2022-07-06T04:04:13;99984.22;;;16.81;100.00
22283;BME280;11310;51.528;21.204;2022-07-06T04:06:45;99985.66;;;16.85;100.00
22283;BME280;11310;51.528;21.204;2022-07-06T04:09:16;99982.06;;;16.86;100.00
22283;BME280;11310;51.528;21.204;2022-07-06T04:11:47;99974.84;;;16.88;100.00
22283;BME280;11310;51.528;21.204;2022-07-06T04:14:16;99972.94;;;16.90;100.00
22283;BME280;11310;51.528;21.204;2022-07-06T04:16:49;99968.16;;;16.95;100.00
22283;BME280;11310;51.528;21.204;2022-07-06T04:19:19;99964.44;;;16.98;100.00
22283;BME280;11310;51.528;21.204;2022-07-06T04:21:50;99969.84;;;16.96;100.00
22283;BME280;11310;51.528;21.204;2022-07-06T04:24:20;99974.16;;;16.97;100.00
22283;BME280;11310;51.528;21.204;2022-07-06T04:26:50;99982.00;;;16.99;100.00
22283;BME280;11310;51.528;21.204;2022-07-06T04:29:19;99968.03;;;16.97;100.00
22283;BME280;11310;51.528;21.204;2022-07-06T04:31:50;99968.88;;;16.97;100.00
22283;BME280;11310;51.528;21.204;2022-07-06T04:34:20;99970.56;;;16.98;100.00
22283;BME280;11310;51.528;21.204;2022-07-06T04:36:50;99964.44;;;16.98;100.00
22283;BME280;11310;51.528;21.204;2022-07-06T04:39:19;99967.19;;;16.96;100.00
22283;BME280;11310;51.528;21.204;2022-07-06T04:41:51;99964.44;;;16.98;100.00
22283;BME280;11310;51.528;21.204;2022-07-06T04:44:24;99966.97;;;16.99;100.00
22283;BME280;11310;51.528;21.204;2022-07-06T04:46:56;99964.31;;;16.99;100.00
22283;BME280;11310;51.528;21.204;2022-07-06T04:49:27;99967.69;;;17.01;100.00
22283;BME280;11310;51.528;21.204;2022-07-06T04:51:59;99958.56;;;17.05;100.00
22283;BME280;11310;51.528;21.204;2022-07-06T04:54:35;99964.59;;;17.07;100.00
22283;BME280;11310;51.528;21.204;2022-07-06T04:57:06;99975.19;;;17.07;100.00
22283;BME280;11310;51.528;21.204;2022-07-06T04:59:40;99991.44;;;17.03;100.00
22283;BME280;11310;51.528;21.204;2022-07-06T05:02:11;100011.78;;;17.02;100.00
22283;BME280;11310;51.528;21.204;2022-07-06T05:04:40;100003.13;;;17.00;100.00
22283;BME280;11310;51.528;21.204;2022-07-06T05:07:09;100011.78;;;17.02;100.00
22283;BME280;11310;51.528;21.204;2022-07-06T05:09:38;100015.19;;;17.04;100.00
22283;BME280;11310;51.528;21.204;2022-07-06T05:12:08;100021.31;;;17.05;100.00
22283;BME280;11310;51.528;21.204;2022-07-06T05:14:38;100021.00;;;17.09;100.00
22283;BME280;11310;51.528;21.204;2022-07-06T05:17:08;100025.97;;;17.14;100.00
22283;BME280;11310;51.528;21.204;2022-07-06T05:19:39;100029.38;;;17.16;100.00
22283;BME280;11310;51.528;21.204;2022-07-06T05:22:08;100027.53;;;17.16;100.00
22283;BME280;11310;51.528;21.204;2022-07-06T05:24:37;100031.03;;;17.17;100.00
22283;BME280;11310;51.528;21.204;2022-07-06T05:27:06;100032.63;;;17.19;100.00
22283;BME280;11310;51.528;21.204;2022-07-06T05:29:35;100045.53;;;17.24;100.00
22283;BME280;11310;51.528;21.204;2022-07-06T05:32:04;100049.78;;;17.26;100.00
22283;BME280;11310;51.528;21.204;2022-07-06T05:34:33;100052.22;;;17.29;100.00
22283;BME280;11310;51.528;21.204;2022-07-06T05:37:05;100059.72;;;17.35;100.00
22283;BME280;11310;51.528;21.204;2022-07-06T05:39:34;100057.81;;;17.37;100.00
22283;BME280;11310;51.528;21.204;2022-07-06T05:42:09;100059.50;;;17.38;100.00
22283;BME280;11310;51.528;21.204;2022-07-06T05:44:38;100054.97;;;17.40;100.00
22283;BME280;11310;51.528;21.204;2022-07-06T05:47:09;100062.69;;;17.43;100.00
22283;BME280;11310;51.528;21.204;2022-07-06T05:49:55;100060.91;;;17.44;100.00
22283;BME280;11310;51.528;21.204;2022-07-06T05:52:57;100068.75;;;17.45;100.00
22283;BME280;11310;51.528;21.204;2022-07-06T05:55:36;100067.78;;;17.46;100.00
22283;BME280;11310;51.528;21.204;2022-07-06T05:58:06;100071.03;;;17.50;100.00
22283;BME280;11310;51.528;21.204;2022-07-06T06:00:37;100064.66;;;17.52;100.00
22283;BME280;11310;51.528;21.204;2022-07-06T06:03:12;100063.00;;;17.62;100.00
22283;BME280;11310;51.528;21.204;2022-07-06T06:05:41;100071.25;;;17.70;100.00
22283;BME280;11310;51.528;21.204;2022-07-06T06:08:16;100070.78;;;17.76;100.00
22283;BME280;11310;51.528;21.204;2022-07-06T06:10:46;100074.81;;;17.82;100.00
22283;BME280;11310;51.528;21.204;2022-07-06T06:13:18;100069.78;;;17.90;100.00
22283;BME280;11310;51.528;21.204;2022-07-06T06:15:47;100068.72;;;18.03;100.00
22283;BME280;11310;51.528;21.204;2022-07-06T06:18:16;100066.13;;;18.14;100.00
22283;BME280;11310;51.528;21.204;2022-07-06T06:20:46;100074.59;;;18.30;100.00
22283;BME280;11310;51.528;21.204;2022-07-06T06:23:16;100070.78;;;18.45;100.00
22283;BME280;11310;51.528;21.204;2022-07-06T06:25:46;100064.03;;;18.63;100.00
22283;BME280;11310;51.528;21.204;2022-07-06T06:28:15;100064.53;;;18.79;100.00
22283;BME280;11310;51.528;21.204;2022-07-06T06:30:44;100070.56;;;18.92;100.00
22283;BME280;11310;51.528;21.204;2022-07-06T06:33:14;100078.38;;;19.16;100.00
22283;BME280;11310;51.528;21.204;2022-07-06T06:35:45;100081.44;;;19.33;100.00
22283;BME280;11310;51.528;21.204;2022-07-06T06:38:17;100080.94;;;19.39;100.00
22283;BME280;11310;51.528;21.204;2022-07-06T06:40:46;100084.31;;;19.41;100.00
22283;BME280;11310;51.528;21.204;2022-07-06T06:43:15;100094.00;;;19.42;100.00
22283;BME280;11310;51.528;21.204;2022-07-06T06:45:55;100088.44;;;19.34;100.00
22283;BME280;11310;51.528;21.204;2022-07-06T06:48:24;100096.47;;;19.23;100.00
22283;BME280;11310;51.528;21.204;2022-07-06T06:50:53;100092.31;;;19.08;100.00
22283;BME280;11310;51.528;21.204;2022-07-06T06:53:23;100093.16;;;18.98;100.00
22283;BME280;11310;51.528;21.204;2022-07-06T06:55:52;100092.19;;;18.88;100.00
22283;BME280;11310;51.528;21.204;2022-07-06T06:58:20;100089.31;;;18.80;100.00
22283;BME280;11310;51.528;21.204;2022-07-06T07:00:49;100089.53;;;18.77;100.00
22283;BME280;11310;51.528;21.204;2022-07-06T07:03:18;100096.66;;;18.76;100.00
22283;BME280;11310;51.528;21.204;2022-07-06T07:05:47;100090.63;;;18.85;100.00
22283;BME280;11310;51.528;21.204;2022-07-06T07:08:16;100093.66;;;18.92;100.00
22283;BME280;11310;51.528;21.204;2022-07-06T07:10:46;100097.66;;;18.97;100.00
22283;BME280;11310;51.528;21.204;2022-07-06T07:13:15;100099.44;;;18.97;100.00
22283;BME280;11310;51.528;21.204;2022-07-06T07:15:47;100105.03;;;18.94;100.00
22283;BME280;11310;51.528;21.204;2022-07-06T07:18:20;100096.56;;;18.89;100.00
22283;BME280;11310;51.528;21.204;2022-07-06T07:20:54;100102.59;;;18.80;100.00
22283;BME280;11310;51.528;21.204;2022-07-06T07:23:28;100095.59;;;18.68;100.00
22283;BME280;11310;51.528;21.204;2022-07-06T07:26:04;100096.44;;;18.68;100.00
22283;BME280;11310;51.528;21.204;2022-07-06T07:28:34;100101.16;;;18.76;100.00
22283;BME280;11310;51.528;21.204;2022-07-06T07:31:04;100101.97;;;18.76;100.00
22283;BME280;11310;51.528;21.204;2022-07-06T07:33:34;100108.97;;;18.77;100.00
22283;BME280;11310;51.528;21.204;2022-07-06T07:36:03;100109.63;;;18.81;100.00
22283;BME280;11310;51.528;21.204;2022-07-06T07:38:33;100117.84;;;18.89;100.00
22283;BME280;11310;51.528;21.204;2022-07-06T07:41:04;100117.00;;;19.10;100.00
22283;BME280;11310;51.528;21.204;2022-07-06T07:43:34;100113.31;;;19.55;100.00
22283;BME280;11310;51.528;21.204;2022-07-06T07:46:03;100117.69;;;19.88;100.00
22283;BME280;11310;51.528;21.204;2022-07-06T07:48:32;100112.88;;;20.13;100.00
22283;BME280;11310;51.528;21.204;2022-07-06T07:51:04;100114.78;;;20.22;100.00
22283;BME280;11310;51.528;21.204;2022-07-06T07:53:33;100109.44;;;20.22;100.00
22283;BME280;11310;51.528;21.204;2022-07-06T07:56:15;100117.84;;;20.38;100.00
22283;BME280;11310;51.528;21.204;2022-07-06T07:58:45;100107.75;;;20.62;100.00
22283;BME280;11310;51.528;21.204;2022-07-06T08:01:20;100114.97;;;20.92;100.00
22283;BME280;11310;51.528;21.204;2022-07-06T08:03:49;100111.06;;;21.06;100.00
22283;BME280;11310;51.528;21.204;2022-07-06T08:06:18;100120.94;;;21.15;100.00
22283;BME280;11310;51.528;21.204;2022-07-06T08:08:46;100119.25;;;21.14;100.00
22283;BME280;11310;51.528;21.204;2022-07-06T08:11:20;100113.06;;;21.04;100.00
22283;BME280;11310;51.528;21.204;2022-07-06T08:13:49;100121.97;;;20.93;100.00
22283;BME280;11310;51.528;21.204;2022-07-06T08:16:18;100130.63;;;20.85;100.00
22283;BME280;11310;51.528;21.204;2022-07-06T08:18:47;100119.56;;;20.69;100.00
22283;BME280;11310;51.528;21.204;2022-07-06T08:21:26;100129.66;;;20.45;100.00
22283;BME280;11310;51.528;21.204;2022-07-06T08:23:55;100124.94;;;20.28;100.00
22283;BME280;11310;51.528;21.204;2022-07-06T08:26:28;100115.84;;;20.51;100.00
22283;BME280;11310;51.528;21.204;2022-07-06T08:29:00;100112.94;;;20.84;100.00
22283;BME280;11310;51.528;21.204;2022-07-06T08:31:29;100099.75;;;21.13;100.00
22283;BME280;11310;51.528;21.204;2022-07-06T08:34:19;100103.09;;;21.55;100.00
22283;BME280;11310;51.528;21.204;2022-07-06T08:36:49;100110.31;;;21.83;100.00
22283;BME280;11310;51.528;21.204;2022-07-06T08:39:18;100111.75;;;21.96;100.00
22283;BME280;11310;51.528;21.204;2022-07-06T08:41:48;100112.19;;;22.01;100.00
22283;BME280;11310;51.528;21.204;2022-07-06T08:44:18;100122.84;;;22.11;100.00
22283;BME280;11310;51.528;21.204;2022-07-06T08:46:48;100118.66;;;21.99;100.00
22283;BME280;11310;51.528;21.204;2022-07-06T08:49:18;100123.69;;;21.83;100.00
22283;BME280;11310;51.528;21.204;2022-07-06T08:51:49;100122.38;;;21.68;100.00
22283;BME280;11310;51.528;21.204;2022-07-06T08:54:20;100117.81;;;21.49;100.00
22283;BME280;11310;51.528;21.204;2022-07-06T08:56:52;100118.25;;;21.45;100.00
22283;BME280;11310;51.528;21.204;2022-07-06T08:59:20;100123.09;;;21.70;100.00
22283;BME280;11310;51.528;21.204;2022-07-06T09:01:52;100108.34;;;21.75;100.00
22283;BME280;11310;51.528;21.204;2022-07-06T09:04:22;100114.69;;;21.93;100.00
22283;BME280;11310;51.528;21.204;2022-07-06T09:06:50;100113.41;;;21.88;100.00
22283;BME280;11310;51.528;21.204;2022-07-06T09:09:21;100123.34;;;21.67;100.00
22283;BME280;11310;51.528;21.204;2022-07-06T09:11:53;100110.94;;;21.47;100.00
22283;BME280;11310;51.528;21.204;2022-07-06T09:14:30;100104.63;;;21.48;100.00
22283;BME280;11310;51.528;21.204;2022-07-06T09:17:02;100107.13;;;21.89;100.00
22283;BME280;11310;51.528;21.204;2022-07-06T09:19:32;100101.44;;;22.39;100.00
22283;BME280;11310;51.528;21.204;2022-07-06T09:22:02;100091.53;;;22.78;100.00
22283;BME280;11310;51.528;21.204;2022-07-06T09:24:31;100112.59;;;23.00;100.00
22283;BME280;11310;51.528;21.204;2022-07-06T09:27:01;100113.22;;;23.21;99.46
22283;BME280;11310;51.528;21.204;2022-07-06T09:29:32;100114.78;;;23.14;99.17
22283;BME280;11310;51.528;21.204;2022-07-06T09:32:03;100110.25;;;22.87;98.01
22283;BME280;11310;51.528;21.204;2022-07-06T09:34:40;100110.03;;;22.52;98.34
22283;BME280;11310;51.528;21.204;2022-07-06T09:37:11;100103.13;;;22.40;100.00
22283;BME280;11310;51.528;21.204;2022-07-06T09:39:43;100106.66;;;22.41;100.00
22283;BME280;11310;51.528;21.204;2022-07-06T09:42:15;100098.69;;;22.77;98.49
22283;BME280;11310;51.528;21.204;2022-07-06T09:44:44;100100.66;;;23.31;95.10
22283;BME280;11310;51.528;21.204;2022-07-06T09:47:13;100101.94;;;23.89;93.38
22283;BME280;11310;51.528;21.204;2022-07-06T09:49:41;100103.94;;;24.39;89.55
22283;BME280;11310;51.528;21.204;2022-07-06T09:52:11;100113.59;;;24.32;89.65
22283;BME280;11310;51.528;21.204;2022-07-06T09:54:40;100117.28;;;24.14;88.92
22283;BME280;11310;51.528;21.204;2022-07-06T09:57:09;100111.56;;;24.09;90.66
22283;BME280;11310;51.528;21.204;2022-07-06T09:59:39;100108.28;;;23.70;88.24
22283;BME280;11310;51.528;21.204;2022-07-06T10:02:09;100112.06;;;23.23;91.63
22283;BME280;11310;51.528;21.204;2022-07-06T10:04:38;100096.81;;;22.97;92.50
22283;BME280;11310;51.528;21.204;2022-07-06T10:07:08;100096.19;;;22.76;94.08
22283;BME280;11310;51.528;21.204;2022-07-06T10:09:38;100105.13;;;22.94;93.31
22283;BME280;11310;51.528;21.204;2022-07-06T10:12:09;100108.09;;;23.54;90.57
22283;BME280;11310;51.528;21.204;2022-07-06T10:14:42;100114.84;;;24.20;88.47
22283;BME280;11310;51.528;21.204;2022-07-06T10:17:18;100111.50;;;24.61;83.19
22283;BME280;11310;51.528;21.204;2022-07-06T10:19:55;100118.91;;;24.93;81.06
22283;BME280;11310;51.528;21.204;2022-07-06T10:22:32;100117.09;;;24.93;78.61
22283;BME280;11310;51.528;21.204;2022-07-06T10:25:02;100123.44;;;24.92;77.16
22283;BME280;11310;51.528;21.204;2022-07-06T10:27:35;100108.28;;;25.17;75.38
22283;BME280;11310;51.528;21.204;2022-07-06T10:30:06;100106.91;;;25.38;74.49
22283;BME280;11310;51.528;21.204;2022-07-06T10:32:37;100125.44;;;25.49;75.56
22283;BME280;11310;51.528;21.204;2022-07-06T10:35:10;100118.28;;;25.74;74.78
22283;BME280;11310;51.528;21.204;2022-07-06T10:37:40;100121.16;;;25.88;74.21
22283;BME280;11310;51.528;21.204;2022-07-06T10:40:16;100126.31;;;25.66;74.32
22283;BME280;11310;51.528;21.204;2022-07-06T10:43:02;100129.91;;;25.33;74.50
22283;BME280;11310;51.528;21.204;2022-07-06T10:45:52;100122.41;;;25.19;72.29
22283;BME280;11310;51.528;21.204;2022-07-06T10:48:21;100127.19;;;24.74;77.74
22283;BME280;11310;51.528;21.204;2022-07-06T10:50:52;100131.47;;;24.67;78.32
22283;BME280;11310;51.528;21.204;2022-07-06T10:53:24;100130.72;;;24.57;76.00
22283;BME280;11310;51.528;21.204;2022-07-06T10:55:54;100134.81;;;24.26;77.63
22283;BME280;11310;51.528;21.204;2022-07-06T10:58:38;100133.53;;;23.95;75.02
22283;BME280;11310;51.528;21.204;2022-07-06T11:01:10;100125.72;;;24.19;78.42
22283;BME280;11310;51.528;21.204;2022-07-06T11:03:43;100124.91;;;24.44;75.78
22283;BME280;11310;51.528;21.204;2022-07-06T11:06:14;100122.41;;;24.85;73.02
22283;BME280;11310;51.528;21.204;2022-07-06T11:08:52;100136.09;;;25.08;70.75
22283;BME280;11310;51.528;21.204;2022-07-06T11:11:26;100137.69;;;25.18;71.35
22283;BME280;11310;51.528;21.204;2022-07-06T11:14:00;100128.41;;;25.13;72.52
22283;BME280;11310;51.528;21.204;2022-07-06T11:16:32;100123.22;;;25.45;71.32
22283;BME280;11310;51.528;21.204;2022-07-06T11:19:08;100120.72;;;26.01;69.40
22283;BME280;11310;51.528;21.204;2022-07-06T11:21:44;100123.75;;;26.38;68.60
22283;BME280;11310;51.528;21.204;2022-07-06T11:24:15;100126.44;;;26.46;67.25
22283;BME280;11310;51.528;21.204;2022-07-06T11:26:46;100133.38;;;26.56;68.50
22283;BME280;11310;51.528;21.204;2022-07-06T11:29:18;100130.78;;;26.87;67.87
22283;BME280;11310;51.528;21.204;2022-07-06T11:31:53;100127.81;;;26.74;65.88
22283;BME280;11310;51.528;21.204;2022-07-06T11:34:24;100126.78;;;26.19;66.36
22283;BME280;11310;51.528;21.204;2022-07-06T11:36:57;100122.78;;;25.65;68.81
22283;BME280;11310;51.528;21.204;2022-07-06T11:39:27;100136.63;;;25.37;69.40
22283;BME280;11310;51.528;21.204;2022-07-06T11:41:56;100138.38;;;25.20;69.52
22283;BME280;11310;51.528;21.204;2022-07-06T11:44:26;100146.13;;;24.98;68.68
22283;BME280;11310;51.528;21.204;2022-07-06T11:46:56;100143.94;;;24.68;69.22
22283;BME280;11310;51.528;21.204;2022-07-06T11:49:28;100142.25;;;24.32;70.08
22283;BME280;11310;51.528;21.204;2022-07-06T11:51:58;100152.06;;;24.06;71.11
22283;BME280;11310;51.528;21.204;2022-07-06T11:54:27;100151.44;;;23.94;71.73
22283;BME280;11310;51.528;21.204;2022-07-06T11:56:57;100150.69;;;24.37;73.73
22283;BME280;11310;51.528;21.204;2022-07-06T11:59:29;100139.94;;;24.97;69.76
22283;BME280;11310;51.528;21.204;2022-07-06T12:02:00;100149.88;;;25.38;66.59
22283;BME280;11310;51.528;21.204;2022-07-06T12:04:35;100142.50;;;25.90;68.83
22283;BME280;11310;51.528;21.204;2022-07-06T12:07:06;100127.78;;;26.18;66.50
22283;BME280;11310;51.528;21.204;2022-07-06T12:09:38;100122.41;;;26.26;64.65
22283;BME280;11310;51.528;21.204;2022-07-06T12:12:09;100127.97;;;26.40;63.79
22283;BME280;11310;51.528;21.204;2022-07-06T12:14:39;100119.56;;;26.67;62.37
22283;BME280;11310;51.528;21.204;2022-07-06T12:17:11;100128.31;;;26.69;61.05
22283;BME280;11310;51.528;21.204;2022-07-06T12:19:41;100127.81;;;26.34;63.85
22283;BME280;11310;51.528;21.204;2022-07-06T12:22:11;100124.94;;;26.03;63.82
22283;BME280;11310;51.528;21.204;2022-07-06T12:24:42;100129.22;;;25.80;64.16
22283;BME280;11310;51.528;21.204;2022-07-06T12:27:14;100126.25;;;25.50;64.37
22283;BME280;11310;51.528;21.204;2022-07-06T12:29:44;100125.84;;;25.29;65.33
22283;BME280;11310;51.528;21.204;2022-07-06T12:32:16;100129.13;;;25.48;62.35
22283;BME280;11310;51.528;21.204;2022-07-06T12:35:02;100128.66;;;25.61;60.30
22283;BME280;11310;51.528;21.204;2022-07-06T12:37:30;100122.66;;;25.75;62.40
22283;BME280;11310;51.528;21.204;2022-07-06T12:39:59;100116.94;;;25.86;63.56
22283;BME280;11310;51.528;21.204;2022-07-06T12:42:29;100114.59;;;25.83;61.50
22283;BME280;11310;51.528;21.204;2022-07-06T12:44:58;100122.31;;;25.86;64.72
22283;BME280;11310;51.528;21.204;2022-07-06T12:47:29;100124.34;;;25.84;65.24
22283;BME280;11310;51.528;21.204;2022-07-06T12:50:05;100125.00;;;25.70;60.69
22283;BME280;11310;51.528;21.204;2022-07-06T12:52:37;100131.06;;;25.30;64.30